createdAt,value
2022-07-25T00:01:54.734Z,19.60
2022-07-25T00:04:24.028Z,19.60
2022-07-25T00:06:51.461Z,19.60
2022-07-25T00:09:18.902Z,19.60
2022-07-25T00:11:46.507Z,19.50
2022-07-25T00:14:13.829Z,19.50
2022-07-25T00:16:41.038Z,19.40
2022-07-25T00:19:08.390Z,19.30
2022-07-25T00:21:35.650Z,19.40
2022-07-25T00:24:03.140Z,19.40
2022-07-25T00:26:30.727Z,19.30
2022-07-25T00:28:57.905Z,19.30
2022-07-25T00:31:25.178Z,19.20
2022-07-25T00:33:52.282Z,19.20
2022-07-25T00:36:19.797Z,19.20
2022-07-25T00:38:46.954Z,19.10
2022-07-25T00:41:14.089Z,19.10
2022-07-25T00:43:46.021Z,19.10
2022-07-25T00:46:18.788Z,19.00
2022-07-25T00:48:46.488Z,19.00
2022-07-25T00:51:13.785Z,19.00
2022-07-25T00:53:40.988Z,18.90
2022-07-25T00:56:08.717Z,18.90
2022-07-25T00:58:36.189Z,18.90
2022-07-25T01:01:04.439Z,18.90
2022-07-25T01:03:31.823Z,18.90
2022-07-25T01:05:59.839Z,18.80
2022-07-25T01:08:27.778Z,18.80
2022-07-25T01:10:55.134Z,18.80
2022-07-25T01:13:22.296Z,18.70
2022-07-25T01:15:49.587Z,18.60
2022-07-25T01:18:17.719Z,18.60
2022-07-25T01:20:45.055Z,18.60
2022-07-25T01:23:12.209Z,18.60
2022-07-25T01:25:39.303Z,18.60
2022-07-25T01:28:06.742Z,18.50
2022-07-25T01:30:33.963Z,18.50
2022-07-25T01:33:07.083Z,18.50
2022-07-25T01:35:36.998Z,18.50
2022-07-25T01:38:06.432Z,18.50
2022-07-25T01:40:33.568Z,18.50
2022-07-25T01:43:00.873Z,18.40
2022-07-25T01:45:28.328Z,18.40
2022-07-25T01:47:55.727Z,18.40
2022-07-25T01:50:23.062Z,18.40
2022-07-25T01:52:50.282Z,18.50
2022-07-25T01:55:17.804Z,18.40
2022-07-25T01:57:49.855Z,18.40
2022-07-25T02:00:18.553Z,18.40
2022-07-25T02:02:46.228Z,18.30
2022-07-25T02:05:14.838Z,18.30
2022-07-25T02:07:42.216Z,18.20
2022-07-25T02:10:09.911Z,18.20
2022-07-25T02:12:37.263Z,18.20
2022-07-25T02:15:05.204Z,18.20
2022-07-25T02:17:32.598Z,18.10
2022-07-25T02:19:59.718Z,18.10
2022-07-25T02:22:27.128Z,18.00
2022-07-25T02:24:54.401Z,18.00
2022-07-25T02:27:21.733Z,18.00
2022-07-25T02:29:48.837Z,18.00
2022-07-25T02:32:15.934Z,17.90
2022-07-25T02:34:43.026Z,17.90
2022-07-25T02:37:10.153Z,17.90
2022-07-25T02:39:37.432Z,17.90
2022-07-25T02:42:04.977Z,17.80
2022-07-25T02:44:32.051Z,17.80
2022-07-25T02:46:59.179Z,17.80
2022-07-25T02:49:26.340Z,17.70
2022-07-25T02:51:53.381Z,17.70
2022-07-25T02:54:20.613Z,17.70
2022-07-25T02:56:47.935Z,17.70
2022-07-25T02:59:15.129Z,17.70
2022-07-25T03:01:42.484Z,17.70
2022-07-25T03:04:10.187Z,17.60
2022-07-25T03:06:38.478Z,17.60
2022-07-25T03:09:06.505Z,17.60
2022-07-25T03:11:34.769Z,17.60
2022-07-25T03:14:02.114Z,17.60
2022-07-25T03:16:29.697Z,17.60
2022-07-25T03:18:57.350Z,17.60
2022-07-25T03:21:24.540Z,17.60
2022-07-25T03:23:52.865Z,17.60
2022-07-25T03:26:21.084Z,17.60
2022-07-25T03:28:48.616Z,17.60
2022-07-25T03:31:15.749Z,17.50
2022-07-25T03:33:42.932Z,17.50
2022-07-25T03:36:11.793Z,17.50
2022-07-25T03:38:39.556Z,17.40
2022-07-25T03:41:06.858Z,17.40
2022-07-25T03:43:34.456Z,17.50
2022-07-25T03:46:01.981Z,17.50
2022-07-25T03:48:29.400Z,17.60
2022-07-25T03:50:57.369Z,17.50
2022-07-25T03:53:24.710Z,17.50
2022-07-25T03:55:51.859Z,17.50
2022-07-25T03:58:19.153Z,17.50
2022-07-25T04:00:48.806Z,17.60
2022-07-25T04:03:16.062Z,17.60
2022-07-25T04:05:47.373Z,17.70
2022-07-25T04:08:15.516Z,17.80
2022-07-25T04:10:42.798Z,17.80
2022-07-25T04:13:10.343Z,17.90
2022-07-25T04:15:37.653Z,18.00
2022-07-25T04:18:05.330Z,18.10
2022-07-25T04:20:37.627Z,18.10
2022-07-25T04:23:05.237Z,18.30
2022-07-25T04:25:32.488Z,18.30
2022-07-25T04:27:59.739Z,18.40
2022-07-25T04:30:27.025Z,18.50
2022-07-25T04:32:54.372Z,18.60
2022-07-25T04:35:21.777Z,18.60
2022-07-25T04:37:49.297Z,18.70
2022-07-25T04:40:16.779Z,18.90
2022-07-25T04:42:44.210Z,18.90
2022-07-25T04:45:11.716Z,19.00
2022-07-25T04:47:38.897Z,19.10
2022-07-25T04:50:06.489Z,19.30
2022-07-25T04:52:33.699Z,19.30
2022-07-25T04:55:01.080Z,19.50
2022-07-25T04:57:28.246Z,19.50
2022-07-25T04:59:56.425Z,19.60
2022-07-25T05:02:23.774Z,19.80
2022-07-25T05:04:52.072Z,19.80
2022-07-25T05:07:19.982Z,20.00
2022-07-25T05:09:48.019Z,20.10
2022-07-25T05:12:15.197Z,20.30
2022-07-25T05:14:42.329Z,20.50
2022-07-25T05:17:09.475Z,20.60
2022-07-25T05:19:36.984Z,20.80
2022-07-25T05:22:04.676Z,21.00
2022-07-25T05:24:36.405Z,21.10
2022-07-25T05:27:04.842Z,21.20
2022-07-25T05:29:32.531Z,21.40
2022-07-25T05:32:00.037Z,21.50
2022-07-25T05:34:27.818Z,21.70
2022-07-25T05:36:55.200Z,21.80
2022-07-25T05:39:22.615Z,22.00
2022-07-25T05:41:49.914Z,22.20
2022-07-25T05:44:17.087Z,22.40
2022-07-25T05:46:44.542Z,22.70
2022-07-25T05:49:12.335Z,23.90
2022-07-25T05:51:39.609Z,25.80
2022-07-25T05:54:07.178Z,27.40
2022-07-25T05:56:34.673Z,29.50
2022-07-25T05:59:01.834Z,31.30
2022-07-25T06:01:29.754Z,32.40
2022-07-25T06:03:57.020Z,33.10
2022-07-25T06:06:24.201Z,33.70
2022-07-25T06:08:51.480Z,34.30
2022-07-25T06:11:21.376Z,34.90
2022-07-25T06:13:48.558Z,35.40
2022-07-25T06:16:15.702Z,35.30
2022-07-25T06:18:43.054Z,35.70
2022-07-25T06:21:10.306Z,35.40
2022-07-25T06:23:37.610Z,35.60
2022-07-25T06:26:10.174Z,36.40
2022-07-25T06:28:38.734Z,36.50
2022-07-25T06:31:06.091Z,36.10
2022-07-25T06:33:33.415Z,36.00
2022-07-25T06:36:00.605Z,36.60
2022-07-25T06:38:30.273Z,36.90
2022-07-25T06:40:57.438Z,37.40
2022-07-25T06:43:24.524Z,37.30
2022-07-25T06:45:51.736Z,37.50
2022-07-25T06:48:19.296Z,37.80
2022-07-25T06:50:46.525Z,37.30
2022-07-25T06:53:13.804Z,38.30
2022-07-25T06:55:40.943Z,38.70
2022-07-25T06:58:08.154Z,38.30
2022-07-25T07:00:35.389Z,37.90
2022-07-25T07:03:03.235Z,38.70
2022-07-25T07:05:33.120Z,39.90
2022-07-25T07:08:01.417Z,40.40
2022-07-25T07:10:29.667Z,40.70
2022-07-25T07:13:08.345Z,40.80
2022-07-25T07:15:36.267Z,40.40
2022-07-25T07:18:04.124Z,40.80
2022-07-25T07:20:31.914Z,41.40
2022-07-25T07:22:59.504Z,40.50
2022-07-25T07:25:28.298Z,41.30
2022-07-25T07:27:55.835Z,41.10
2022-07-25T07:30:26.001Z,40.10
2022-07-25T07:33:00.647Z,40.50
2022-07-25T07:35:28.149Z,40.70
2022-07-25T07:38:01.932Z,41.00
2022-07-25T07:40:29.298Z,41.00
2022-07-25T07:43:01.112Z,41.20
2022-07-25T07:45:28.381Z,40.90
2022-07-25T07:47:56.243Z,41.50
2022-07-25T07:50:30.302Z,41.20
2022-07-25T07:52:58.738Z,41.30
2022-07-25T07:55:46.496Z,41.30
2022-07-25T07:58:15.833Z,40.20
2022-07-25T08:00:45.078Z,40.90
2022-07-25T08:03:12.307Z,41.40
2022-07-25T08:05:42.394Z,41.50
2022-07-25T08:08:11.510Z,41.80
2022-07-25T08:10:41.918Z,41.70
2022-07-25T08:13:16.521Z,41.50
2022-07-25T08:15:46.106Z,41.40
2022-07-25T08:18:16.878Z,42.10
2022-07-25T08:20:46.986Z,42.70
2022-07-25T08:23:14.770Z,42.20
2022-07-25T08:25:42.738Z,42.30
2022-07-25T08:28:10.327Z,42.00
2022-07-25T08:30:39.180Z,41.90
2022-07-25T08:33:10.701Z,40.30
2022-07-25T08:35:38.690Z,40.50
2022-07-25T08:38:06.192Z,40.40
2022-07-25T08:40:34.553Z,40.80
2022-07-25T08:43:01.719Z,40.90
2022-07-25T08:45:29.157Z,40.70
2022-07-25T08:47:57.240Z,41.00
2022-07-25T08:50:28.961Z,40.10
2022-07-25T08:53:23.109Z,38.20
2022-07-25T08:55:46.519Z,37.30
2022-07-25T08:58:16.529Z,36.50
2022-07-25T09:00:43.991Z,35.70
2022-07-25T09:03:12.336Z,35.40
2022-07-25T09:05:40.031Z,34.60
2022-07-25T09:08:11.746Z,34.20
2022-07-25T09:10:42.569Z,33.80
2022-07-25T09:13:14.342Z,33.30
2022-07-25T09:15:47.838Z,32.90
2022-07-25T09:18:18.848Z,33.20
2022-07-25T09:20:48.839Z,33.10
2022-07-25T09:23:29.624Z,33.40
2022-07-25T09:26:05.496Z,33.60
2022-07-25T09:28:39.642Z,33.40
2022-07-25T09:31:07.567Z,33.20
2022-07-25T09:33:35.073Z,33.20
2022-07-25T09:36:11.786Z,33.00
2022-07-25T09:38:39.542Z,32.90
2022-07-25T09:41:07.938Z,32.60
2022-07-25T09:43:38.644Z,32.50
2022-07-25T09:46:07.210Z,32.60
2022-07-25T09:48:35.849Z,32.90
2022-07-25T09:51:03.401Z,32.90
2022-07-25T09:53:30.645Z,32.90
2022-07-25T09:55:58.004Z,32.80
2022-07-25T09:58:28.538Z,32.80
2022-07-25T10:01:03.471Z,32.90
2022-07-25T10:03:59.228Z,33.00
2022-07-25T10:06:39.208Z,33.30
2022-07-25T10:09:14.431Z,33.00
2022-07-25T10:12:02.008Z,32.60
2022-07-25T10:14:29.674Z,32.50
2022-07-25T10:16:56.827Z,32.60
2022-07-25T10:19:51.786Z,32.70
2022-07-25T10:22:34.313Z,32.40
2022-07-25T10:25:13.492Z,32.50
2022-07-25T10:27:45.172Z,32.60
2022-07-25T10:30:24.541Z,32.60
2022-07-25T10:33:01.311Z,32.80
2022-07-25T10:35:29.519Z,33.00
2022-07-25T10:37:58.947Z,33.20
2022-07-25T10:40:34.809Z,33.20
2022-07-25T10:43:07.153Z,33.10
2022-07-25T10:45:39.414Z,32.80
2022-07-25T10:48:09.257Z,33.00
2022-07-25T10:50:55.861Z,33.00
2022-07-25T10:53:35.255Z,33.10
2022-07-25T10:56:08.077Z,33.00
2022-07-25T10:58:53.498Z,33.10
2022-07-25T11:01:24.229Z,32.90
2022-07-25T11:03:53.800Z,33.00
2022-07-25T11:06:38.729Z,33.00
2022-07-25T11:09:28.288Z,33.10
2022-07-25T11:11:58.947Z,33.20
2022-07-25T11:14:42.896Z,33.20
2022-07-25T11:17:22.690Z,33.30
2022-07-25T11:20:08.966Z,33.30
2022-07-25T11:22:36.222Z,33.30
2022-07-25T11:25:11.386Z,33.50
2022-07-25T11:27:38.955Z,33.40
2022-07-25T11:30:12.280Z,33.30
2022-07-25T11:32:41.222Z,33.40
2022-07-25T11:35:10.115Z,33.40
2022-07-25T11:37:39.585Z,33.40
2022-07-25T11:40:08.527Z,33.40
2022-07-25T11:42:42.514Z,33.30
2022-07-25T11:45:19.585Z,33.50
2022-07-25T11:47:50.289Z,33.70
2022-07-25T11:50:17.645Z,33.80
2022-07-25T11:52:46.017Z,34.00
2022-07-25T11:55:17.076Z,34.10
2022-07-25T11:57:47.478Z,33.90
2022-07-25T12:00:21.151Z,33.80
2022-07-25T12:02:49.090Z,33.60
2022-07-25T12:05:19.119Z,33.50
2022-07-25T12:07:49.163Z,33.50
2022-07-25T12:10:22.286Z,33.50
2022-07-25T12:12:55.776Z,33.60
2022-07-25T12:15:26.668Z,33.30
2022-07-25T12:17:55.847Z,33.30
2022-07-25T12:20:27.721Z,33.50
2022-07-25T12:22:58.138Z,33.60
2022-07-25T12:25:30.703Z,33.80
2022-07-25T12:27:59.057Z,33.80
2022-07-25T12:30:28.158Z,33.40
2022-07-25T12:32:56.369Z,33.40
2022-07-25T12:35:24.570Z,33.50
2022-07-25T12:37:53.187Z,33.70
2022-07-25T12:40:21.315Z,33.50
2022-07-25T12:42:49.568Z,33.20
2022-07-25T12:45:17.914Z,33.20
2022-07-25T12:47:46.670Z,33.50
2022-07-25T12:50:15.984Z,33.70
2022-07-25T12:52:44.569Z,33.50
2022-07-25T12:55:14.424Z,33.50
2022-07-25T12:57:42.404Z,33.50
2022-07-25T13:00:13.701Z,33.50
2022-07-25T13:02:42.164Z,33.70
2022-07-25T13:05:10.354Z,33.60
2022-07-25T13:07:38.105Z,33.50
2022-07-25T13:10:06.459Z,33.50
2022-07-25T13:12:34.232Z,33.60
2022-07-25T13:15:02.594Z,33.40
2022-07-25T13:17:31.895Z,33.40
2022-07-25T13:19:59.736Z,33.40
2022-07-25T13:22:27.784Z,33.50
2022-07-25T13:24:55.595Z,33.50
2022-07-25T13:27:23.614Z,33.30
2022-07-25T13:29:54.772Z,33.20
2022-07-25T13:32:22.843Z,33.20
2022-07-25T13:34:50.556Z,33.20
2022-07-25T13:37:17.756Z,33.30
2022-07-25T13:39:45.129Z,33.40
2022-07-25T13:42:13.022Z,33.50
2022-07-25T13:44:40.144Z,33.50
2022-07-25T13:47:08.559Z,33.60
2022-07-25T13:49:37.174Z,33.60
2022-07-25T13:52:04.671Z,33.60
2022-07-25T13:54:32.548Z,33.60
2022-07-25T13:57:00.031Z,33.70
2022-07-25T13:59:27.242Z,33.70
2022-07-25T14:01:54.431Z,33.80
2022-07-25T14:04:21.705Z,33.90
2022-07-25T14:06:52.216Z,33.90
2022-07-25T14:09:21.857Z,33.80
2022-07-25T14:11:49.438Z,33.60
2022-07-25T14:14:17.216Z,33.60
2022-07-25T14:16:44.877Z,33.70
2022-07-25T14:19:12.729Z,33.60
2022-07-25T14:21:39.876Z,33.50
2022-07-25T14:24:08.692Z,33.50
2022-07-25T14:26:36.026Z,33.50
2022-07-25T14:29:03.793Z,33.60
2022-07-25T14:31:33.073Z,33.50
2022-07-25T14:34:00.721Z,33.50
2022-07-25T14:36:28.031Z,33.40
2022-07-25T14:38:56.115Z,33.50
2022-07-25T14:41:23.435Z,33.50
2022-07-25T14:43:50.752Z,33.40
2022-07-25T14:46:17.882Z,33.40
2022-07-25T14:48:45.277Z,33.30
2022-07-25T14:51:12.568Z,33.20
2022-07-25T14:53:39.744Z,33.30
2022-07-25T14:56:08.600Z,33.30
2022-07-25T14:58:36.238Z,33.20
2022-07-25T15:01:03.758Z,33.20
2022-07-25T15:03:31.213Z,33.20
2022-07-25T15:05:58.562Z,33.10
2022-07-25T15:08:25.973Z,33.10
2022-07-25T15:10:53.210Z,33.20
2022-07-25T15:13:30.882Z,33.10
2022-07-25T15:15:59.307Z,33.10
2022-07-25T15:18:26.691Z,33.10
2022-07-25T15:20:55.476Z,33.20
2022-07-25T15:23:25.270Z,33.30
2022-07-25T15:26:01.602Z,33.20
2022-07-25T15:28:29.731Z,33.20
2022-07-25T15:30:57.126Z,33.30
2022-07-25T15:33:24.257Z,33.20
2022-07-25T15:35:52.441Z,33.10
2022-07-25T15:38:20.596Z,33.10
2022-07-25T15:40:48.095Z,33.00
2022-07-25T15:43:15.463Z,33.00
2022-07-25T15:45:44.747Z,33.00
2022-07-25T15:48:14.605Z,32.90
2022-07-25T15:50:44.069Z,32.80
2022-07-25T15:53:11.861Z,32.80
2022-07-25T15:55:39.710Z,32.70
2022-07-25T15:58:07.761Z,32.60
2022-07-25T16:00:35.893Z,32.60
2022-07-25T16:03:03.281Z,32.50
2022-07-25T16:05:31.646Z,32.50
2022-07-25T16:08:01.857Z,32.50
2022-07-25T16:10:30.581Z,32.40
2022-07-25T16:12:57.842Z,32.30
2022-07-25T16:15:25.586Z,32.30
2022-07-25T16:18:01.909Z,32.20
2022-07-25T16:20:31.954Z,32.20
2022-07-25T16:22:59.722Z,32.20
2022-07-25T16:25:28.569Z,32.10
2022-07-25T16:27:56.630Z,32.10
2022-07-25T16:30:24.046Z,32.10
2022-07-25T16:32:51.287Z,32.00
2022-07-25T16:35:18.917Z,31.90
2022-07-25T16:37:46.308Z,31.90
2022-07-25T16:40:14.782Z,31.80
2022-07-25T16:42:59.396Z,31.80
2022-07-25T16:45:27.362Z,31.70
2022-07-25T16:47:54.835Z,31.60
2022-07-25T16:50:22.242Z,31.60
2022-07-25T16:52:49.700Z,31.50
2022-07-25T16:55:17.200Z,31.50
2022-07-25T16:57:44.759Z,31.40
2022-07-25T17:00:12.651Z,31.40
2022-07-25T17:02:40.791Z,31.30
2022-07-25T17:05:08.531Z,31.40
2022-07-25T17:07:38.848Z,31.30
2022-07-25T17:10:06.725Z,31.20
2022-07-25T17:12:34.782Z,31.20
2022-07-25T17:15:02.095Z,31.20
2022-07-25T17:17:29.390Z,31.10
2022-07-25T17:20:00.023Z,31.00
2022-07-25T17:22:27.574Z,31.00
2022-07-25T17:24:54.811Z,30.80
2022-07-25T17:27:22.131Z,30.70
2022-07-25T17:29:49.917Z,30.60
2022-07-25T17:32:17.241Z,30.60
2022-07-25T17:34:44.629Z,30.50
2022-07-25T17:37:12.573Z,30.40
2022-07-25T17:39:40.520Z,30.30
2022-07-25T17:42:08.337Z,30.20
2022-07-25T17:44:35.905Z,30.10
2022-07-25T17:47:04.263Z,30.00
2022-07-25T17:49:32.207Z,29.80
2022-07-25T17:51:59.654Z,29.80
2022-07-25T17:54:27.014Z,29.60
2022-07-25T17:56:54.539Z,29.40
2022-07-25T17:59:22.026Z,29.30
2022-07-25T18:01:49.180Z,29.20
2022-07-25T18:04:17.199Z,29.00
2022-07-25T18:06:44.906Z,28.90
2022-07-25T18:09:11.998Z,28.90
2022-07-25T18:11:40.561Z,28.70
2022-07-25T18:14:08.628Z,28.60
2022-07-25T18:16:36.060Z,28.50
2022-07-25T18:19:04.031Z,28.30
2022-07-25T18:21:31.190Z,28.10
2022-07-25T18:23:58.558Z,27.90
2022-07-25T18:26:26.247Z,27.80
2022-07-25T18:28:53.548Z,27.60
2022-07-25T18:31:20.709Z,27.50
2022-07-25T18:33:47.934Z,27.40
2022-07-25T18:36:15.411Z,27.30
2022-07-25T18:38:42.512Z,27.30
2022-07-25T18:41:28.640Z,27.20
2022-07-25T18:43:56.775Z,27.10
2022-07-25T18:46:24.206Z,27.00
2022-07-25T18:48:52.003Z,26.90
2022-07-25T18:51:20.858Z,26.90
2022-07-25T18:53:48.944Z,26.80
2022-07-25T18:56:16.668Z,26.80
2022-07-25T18:58:44.503Z,26.70
2022-07-25T19:01:13.267Z,26.70
2022-07-25T19:03:40.863Z,26.60
2022-07-25T19:06:09.247Z,26.50
2022-07-25T19:08:36.647Z,26.40
2022-07-25T19:11:03.956Z,26.30
2022-07-25T19:16:18.951Z,26.20
2022-07-25T19:18:46.572Z,26.10
2022-07-25T19:21:14.033Z,26.10
2022-07-25T19:23:41.204Z,26.00
2022-07-25T19:26:08.405Z,26.00
2022-07-25T19:28:36.456Z,25.90
2022-07-25T19:31:04.078Z,25.90
2022-07-25T19:33:35.042Z,25.80
2022-07-25T19:36:04.258Z,25.90
2022-07-25T19:38:31.881Z,26.00
2022-07-25T19:40:59.365Z,26.00
2022-07-25T19:43:27.327Z,25.90
2022-07-25T19:45:54.646Z,25.90
2022-07-25T19:48:24.201Z,25.90
2022-07-25T19:50:52.218Z,25.80
2022-07-25T19:53:25.346Z,25.70
2022-07-25T19:55:55.425Z,25.60
2022-07-25T19:58:22.660Z,25.40
2022-07-25T20:00:49.869Z,25.30
2022-07-25T20:03:17.147Z,25.20
2022-07-25T20:05:50.991Z,25.20
2022-07-25T20:08:18.940Z,25.10
2022-07-25T20:10:47.473Z,25.00
2022-07-25T20:13:14.916Z,25.00
2022-07-25T20:15:42.073Z,24.90
2022-07-25T20:18:09.218Z,25.00
2022-07-25T20:20:36.441Z,25.00
2022-07-25T20:23:04.179Z,24.90
2022-07-25T20:25:31.459Z,24.90
2022-07-25T20:27:58.562Z,24.90
2022-07-25T20:30:25.857Z,24.90
2022-07-25T20:32:53.139Z,24.90
2022-07-25T20:35:20.342Z,24.90
2022-07-25T20:37:47.414Z,24.90
2022-07-25T20:40:16.049Z,24.80
2022-07-25T20:42:43.432Z,24.80
2022-07-25T20:45:11.046Z,24.70
2022-07-25T20:47:38.119Z,24.70
2022-07-25T20:50:05.562Z,24.70
2022-07-25T20:52:33.426Z,24.70
2022-07-25T20:55:01.904Z,24.60
2022-07-25T20:57:34.759Z,24.60
2022-07-25T21:00:02.036Z,24.60
2022-07-25T21:02:29.183Z,24.50
2022-07-25T21:04:56.393Z,24.50
2022-07-25T21:07:23.520Z,24.40
2022-07-25T21:09:50.586Z,24.40
2022-07-25T21:12:17.790Z,24.40
2022-07-25T21:14:44.954Z,24.40
2022-07-25T21:17:12.248Z,24.40
2022-07-25T21:19:39.404Z,24.30
2022-07-25T21:22:07.014Z,24.30
2022-07-25T21:24:34.120Z,24.30
2022-07-25T21:27:01.995Z,24.20
2022-07-25T21:29:29.124Z,24.10
2022-07-25T21:31:56.368Z,24.00
2022-07-25T21:34:23.441Z,23.90
2022-07-25T21:36:50.679Z,23.80
2022-07-25T21:39:17.933Z,23.70
2022-07-25T21:41:45.135Z,23.60
2022-07-25T21:44:13.869Z,23.50
2022-07-25T21:46:40.984Z,23.50
2022-07-25T21:49:41.868Z,23.40
2022-07-25T21:52:13.945Z,23.40
2022-07-25T21:54:42.792Z,23.30
2022-07-25T21:57:13.773Z,23.30
2022-07-25T21:59:42.736Z,23.20
2022-07-25T22:02:10.356Z,23.10
2022-07-25T22:04:37.990Z,23.10
2022-07-25T22:07:05.215Z,23.00
2022-07-25T22:09:32.356Z,23.00
2022-07-25T22:11:59.972Z,23.00
2022-07-25T22:14:27.246Z,23.00
2022-07-25T22:16:54.484Z,23.00
2022-07-25T22:19:22.620Z,22.90
2022-07-25T22:21:50.853Z,22.90
2022-07-25T22:24:18.242Z,22.80
2022-07-25T22:26:45.694Z,22.80
2022-07-25T22:29:12.950Z,22.70
2022-07-25T22:31:41.310Z,22.70
2022-07-25T22:34:09.073Z,22.70
2022-07-25T22:36:36.283Z,22.60
2022-07-25T22:39:03.828Z,22.60
2022-07-25T22:41:31.141Z,22.60
2022-07-25T22:43:59.886Z,22.60
2022-07-25T22:46:29.454Z,22.60
2022-07-25T22:48:57.682Z,22.60
2022-07-25T22:51:25.637Z,22.50
2022-07-25T22:53:53.125Z,22.50
2022-07-25T22:56:20.842Z,22.40
2022-07-25T22:58:48.791Z,22.40
2022-07-25T23:01:16.617Z,22.40
2022-07-25T23:03:43.797Z,22.30
2022-07-25T23:06:11.292Z,22.30
2022-07-25T23:08:38.557Z,22.20
2022-07-25T23:11:06.237Z,22.20
2022-07-25T23:13:34.438Z,22.20
2022-07-25T23:16:01.917Z,22.20
2022-07-25T23:18:31.776Z,22.20
2022-07-25T23:20:58.993Z,22.20
2022-07-25T23:23:26.271Z,22.10
2022-07-25T23:25:53.416Z,22.10
2022-07-25T23:28:21.068Z,22.10
2022-07-25T23:30:49.186Z,22.00
2022-07-25T23:33:16.258Z,22.00
2022-07-25T23:35:44.244Z,22.00
2022-07-25T23:38:11.335Z,22.00
2022-07-25T23:40:38.505Z,22.10
2022-07-25T23:43:05.786Z,22.00
2022-07-25T23:45:32.859Z,22.10
2022-07-25T23:48:00.005Z,22.10
2022-07-25T23:50:27.279Z,22.10
2022-07-25T23:52:54.537Z,22.00
2022-07-25T23:55:21.571Z,22.00
2022-07-25T23:57:49.709Z,22.00
